Airfield :
LOGIN :

Register | Disclaimer

   EN    FR    IT 

 










Legend :    VFR   Marginal VFR   IFR   Intensive IFR   Very Intensive IFR
Visi :
Ceiling :
>= 8 km
>= 3000ft
5 to 8 km
1000 to 3000 ft
1500m to 5 km
500 to 1000 ft
800 to 1500m
200 to 500 ft
< 800m
< 200 ft
Symbols :   Thunderstorms  Fog  Heavy snow  Heavy precipitations  Wind > 20 kt
SIGMETs :     Misc.  Thunderstorms  Icing  Turbulence  Mountain Waves  Volcanic Ashes






- Airport Elevation : 215 ft
- IATA code : ABZ


EGPD - Aberdeen / Dyce

CURRENT METAR :
  • 051050Z AUTO 17019KT 9999 NCD 10/05 Q1010 NOSIG

EXPIRED METARs :
  • 051020Z AUTO 16019KT 9999 NCD 09/04 Q1010 NOSIG
  • 050950Z AUTO 17017KT 9999 NCD 09/04 Q1011 NOSIG
  • 050920Z AUTO 17019KT 9999 NCD 09/04 Q1011 NOSIG
  • 050850Z AUTO 17016KT 9999 NCD 08/05 Q1011 NOSIG
  • 050820Z AUTO 17013G23KT 9999 NCD 08/05 Q1011 NOSIG
  • 050750Z AUTO 18014KT 9999 NCD 08/05 Q1012 NOSIG

TAF TAF EGPD
Valid from the 05 at 06:00 until the 06 at 06:00 UTC


050454Z 0506/0606 16009KT 9999 SCT030
PROB30
TEMPO 0506/0509 17015G25KT
BECMG 0509/0512 16015G25KT
TEMPO 0512/0604 17022G35KT
PROB40
TEMPO 0518/0603 17032G45KT
PROB30
TEMPO 0600/0606 6000 RA BKN014
BECMG 0603/0606 20012KT



MET'MAP, your aeronautical weather chart ! - Copyright ORBIFLY December 2007 - Disclaimer

ORBIFLY MET'MAP TEAM :

Programming & Development : Alexandra Zaïnal
Concept & original design : Baudouin d'Aumeries
Assistance for programming : Marc-Olivier Méhu
Technical & hardware support : Manuel Goepfert

Contact : metmap@orbifly.com




SOURCES & CREDITS :

   NOAA